Time,TemperatureF,DewpointF,PressureIn,WindDirection,WindDirectionDegrees,WindSpeedMPH,WindSpeedGustMPH,Humidity,HourlyPrecipIn,Conditions,Clouds,dailyrainin,SoftwareType,DateUTC
2013-01-09 00:10:00,33.3,29.0,30.36,NW,321,0.0,-999.0,83,-99.99,,,0.00,weatherlink.com 1.10,2013-01-09 05:10:00,
2013-01-09 00:25:00,33.2,29.0,30.36,NW,321,0.0,-999.0,84,-99.99,,,0.00,weatherlink.com 1.10,2013-01-09 05:25:00,
2013-01-09 00:40:00,32.9,29.0,30.36,NW,321,0.0,-999.0,85,-99.99,,,0.00,weatherlink.com 1.10,2013-01-09 05:40:00,
2013-01-09 00:55:00,33.0,29.0,30.36,NW,318,0.0,-999.0,85,-99.99,,,0.00,weatherlink.com 1.10,2013-01-09 05:55:00,
2013-01-09 01:10:00,33.0,29.0,30.36,NW,319,0.0,-999.0,85,-99.99,,,0.00,weatherlink.com 1.10,2013-01-09 06:10:00,
2013-01-09 01:25:00,32.8,29.0,30.36,NW,319,0.0,-999.0,85,-99.99,,,0.00,weatherlink.com 1.10,2013-01-09 06:25:00,
2013-01-09 01:40:00,32.8,29.0,30.36,NW,319,0.0,-999.0,85,-99.99,,,0.00,weatherlink.com 1.10,2013-01-09 06:40:00,
2013-01-09 01:55:00,32.8,29.0,30.36,NW,319,0.0,-999.0,85,-99.99,,,0.00,weatherlink.com 1.10,2013-01-09 06:55:00,
2013-01-09 02:10:00,32.9,29.0,30.36,NW,319,0.0,-999.0,85,-99.99,,,0.00,weatherlink.com 1.10,2013-01-09 07:10:00,
2013-01-09 02:25:00,32.5,29.0,30.36,NW,319,0.0,-999.0,85,-99.99,,,0.00,weatherlink.com 1.10,2013-01-09 07:25:00,
2013-01-09 02:40:00,32.0,28.0,30.36,NW,319,0.0,-999.0,86,-99.99,,,0.00,weatherlink.com 1.10,2013-01-09 07:40:00,
2013-01-09 02:55:00,32.4,29.0,30.37,NW,319,0.0,-999.0,86,-99.99,,,0.00,weatherlink.com 1.10,2013-01-09 07:55:00,
2013-01-09 03:10:00,32.3,28.0,30.37,NW,319,0.0,-999.0,85,-99.99,,,0.00,weatherlink.com 1.10,2013-01-09 08:10:00,
2013-01-09 03:25:00,32.0,28.0,30.36,NW,319,0.0,-999.0,85,-99.99,,,0.00,weatherlink.com 1.10,2013-01-09 08:25:00,
2013-01-09 03:40:00,31.4,28.0,30.36,NW,319,0.0,-999.0,87,-99.99,,,0.00,weatherlink.com 1.10,2013-01-09 08:40:00,
2013-01-09 03:55:00,32.6,29.0,30.36,NW,319,0.0,-999.0,85,-99.99,,,0.00,weatherlink.com 1.10,2013-01-09 08:55:00,
2013-01-09 04:10:00,33.4,29.0,30.35,NW,319,0.0,-999.0,82,-99.99,,,0.00,weatherlink.com 1.10,2013-01-09 09:10:00,
2013-01-09 04:25:00,33.7,28.0,30.35,NW,319,0.0,-999.0,81,-99.99,,,0.00,weatherlink.com 1.10,2013-01-09 09:25:00,
2013-01-09 04:33:00,33.9,28.4,30.35,NW,319,0.0,0.0,80,0.00,,,0.00,Wunderground v.1.15,2013-01-09 09:33:00,
2013-01-09 04:38:00,34.0,28.5,30.35,NW,319,0.0,0.0,80,0.00,,,0.00,Wunderground v.1.15,2013-01-09 09:38:00,
2013-01-09 04:43:00,33.9,28.1,30.35,NW,319,0.0,0.0,79,0.00,,,0.00,Wunderground v.1.15,2013-01-09 09:43:00,
2013-01-09 04:53:00,33.7,28.2,30.34,NW,318,0.0,0.0,80,0.00,,,0.00,Wunderground v.1.15,2013-01-09 09:53:00,
2013-01-09 04:58:00,33.7,27.9,30.35,NW,319,0.0,0.0,79,0.00,,,0.00,Wunderground v.1.15,2013-01-09 09:58:00,
2013-01-09 05:08:00,33.4,27.6,30.35,NW,319,0.0,0.0,79,0.00,,,0.00,Wunderground v.1.15,2013-01-09 10:08:00,
2013-01-09 05:25:00,33.8,28.0,30.35,NW,319,0.0,-999.0,78,-99.99,,,0.00,weatherlink.com 1.10,2013-01-09 10:25:00,
2013-01-09 05:40:00,34.4,28.0,30.35,NW,319,0.0,-999.0,77,-99.99,,,0.00,weatherlink.com 1.10,2013-01-09 10:40:00,
2013-01-09 05:55:00,34.2,28.0,30.35,NW,319,0.0,-999.0,77,-99.99,,,0.00,weatherlink.com 1.10,2013-01-09 10:55:00,
2013-01-09 06:10:00,31.4,27.0,30.36,West,269,0.0,-999.0,84,-99.99,,,0.00,weatherlink.com 1.10,2013-01-09 11:10:00,
2013-01-09 06:25:00,31.3,27.0,30.36,West,269,0.0,-999.0,85,-99.99,,,0.00,weatherlink.com 1.10,2013-01-09 11:25:00,
2013-01-09 06:40:00,32.0,28.0,30.36,West,270,0.0,-999.0,86,-99.99,,,0.00,weatherlink.com 1.10,2013-01-09 11:40:00,
2013-01-09 06:55:00,31.6,27.0,30.36,West,270,0.0,-999.0,84,-99.99,,,0.00,weatherlink.com 1.10,2013-01-09 11:55:00,
2013-01-09 07:10:00,31.5,27.0,30.36,West,270,0.0,-999.0,84,-99.99,,,0.00,weatherlink.com 1.10,2013-01-09 12:10:00,
2013-01-09 07:25:00,31.6,27.0,30.37,West,270,0.0,-999.0,84,-99.99,,,0.00,weatherlink.com 1.10,2013-01-09 12:25:00,
2013-01-09 07:40:00,30.9,27.0,30.37,West,270,0.0,-999.0,85,-99.99,,,0.00,weatherlink.com 1.10,2013-01-09 12:40:00,
2013-01-09 07:55:00,31.0,27.0,30.36,West,269,0.0,-999.0,86,-99.99,,,0.00,weatherlink.com 1.10,2013-01-09 12:55:00,
2013-01-09 08:10:00,31.9,28.0,30.36,West,269,0.0,-999.0,84,-99.99,,,0.00,weatherlink.com 1.10,2013-01-09 13:10:00,
2013-01-09 08:25:00,32.9,28.0,30.36,West,270,0.0,-999.0,82,-99.99,,,0.00,weatherlink.com 1.10,2013-01-09 13:25:00,
2013-01-09 08:40:00,34.4,29.0,30.36,West,270,0.0,-999.0,79,-99.99,,,0.00,weatherlink.com 1.10,2013-01-09 13:40:00,
2013-01-09 08:55:00,35.6,29.0,30.36,West,270,0.0,-999.0,76,-99.99,,,0.00,weatherlink.com 1.10,2013-01-09 13:55:00,
2013-01-09 09:10:00,36.6,29.0,30.36,West,269,0.0,-999.0,74,-99.99,,,0.00,weatherlink.com 1.10,2013-01-09 14:10:00,
2013-01-09 09:25:00,37.9,30.0,30.36,West,269,0.0,-999.0,72,-99.99,,,0.00,weatherlink.com 1.10,2013-01-09 14:25:00,
2013-01-09 09:40:00,38.6,30.0,30.36,West,267,0.0,-999.0,72,-99.99,,,0.00,weatherlink.com 1.10,2013-01-09 14:40:00,
2013-01-09 09:55:00,39.1,31.0,30.36,West,267,0.0,-999.0,72,-99.99,,,0.00,weatherlink.com 1.10,2013-01-09 14:55:00,
2013-01-09 10:10:00,39.4,31.0,30.36,SSW,205,0.0,-999.0,71,-99.99,,,0.00,weatherlink.com 1.10,2013-01-09 15:10:00,
2013-01-09 10:25:00,40.2,31.0,30.34,SSW,200,1.0,-999.0,71,-99.99,,,0.00,weatherlink.com 1.10,2013-01-09 15:25:00,
2013-01-09 10:40:00,40.5,31.0,30.33,West,259,0.0,-999.0,70,-99.99,,,0.00,weatherlink.com 1.10,2013-01-09 15:40:00,
2013-01-09 10:55:00,40.5,32.0,30.32,SSW,203,0.0,-999.0,71,-99.99,,,0.00,weatherlink.com 1.10,2013-01-09 15:55:00,
2013-01-09 11:10:00,40.6,33.0,30.30,SSW,204,0.0,-999.0,73,-99.99,,,0.00,weatherlink.com 1.10,2013-01-09 16:10:00,
2013-01-09 11:25:00,40.7,33.0,30.27,SSW,211,0.0,-999.0,73,-99.99,,,0.00,weatherlink.com 1.10,2013-01-09 16:25:00,
2013-01-09 11:40:00,40.6,34.0,30.27,SSW,211,0.0,-999.0,77,-99.99,,,0.00,weatherlink.com 1.10,2013-01-09 16:40:00,
2013-01-09 11:55:00,40.7,35.0,30.27,WSW,252,0.0,-999.0,80,-99.99,,,0.00,weatherlink.com 1.10,2013-01-09 16:55:00,
2013-01-09 12:10:00,40.6,36.0,30.27,South,186,0.0,-999.0,82,-99.99,,,0.00,weatherlink.com 1.10,2013-01-09 17:10:00,
2013-01-09 12:25:00,40.4,36.0,30.24,SW,234,0.0,-999.0,83,-99.99,,,0.00,weatherlink.com 1.10,2013-01-09 17:25:00,
2013-01-09 12:40:00,40.6,36.0,30.24,SW,234,0.0,-999.0,83,-99.99,,,0.00,weatherlink.com 1.10,2013-01-09 17:40:00,
2013-01-09 12:56:00,40.8,36.0,30.21,SW,234,0.0,-999.0,84,-99.99,,,0.00,weatherlink.com 1.10,2013-01-09 17:56:00,
2013-01-09 13:11:00,41.0,37.0,30.24,SW,234,0.0,-999.0,84,-99.99,,,0.00,weatherlink.com 1.10,2013-01-09 18:11:00,
2013-01-09 13:26:00,40.9,36.0,30.23,SW,234,0.0,-999.0,84,-99.99,,,0.00,weatherlink.com 1.10,2013-01-09 18:26:00,
2013-01-09 13:41:00,40.7,36.0,30.24,SW,234,0.0,-999.0,84,-99.99,,,0.00,weatherlink.com 1.10,2013-01-09 18:41:00,
2013-01-09 13:56:00,40.7,36.0,30.23,SW,234,0.0,-999.0,84,-99.99,,,0.00,weatherlink.com 1.10,2013-01-09 18:56:00,
2013-01-09 14:11:00,40.9,36.0,30.21,SW,234,0.0,-999.0,84,-99.99,,,0.00,weatherlink.com 1.10,2013-01-09 19:11:00,
2013-01-09 14:26:00,40.9,36.0,30.19,SW,234,0.0,-999.0,84,-99.99,,,0.00,weatherlink.com 1.10,2013-01-09 19:26:00,
2013-01-09 14:41:00,40.7,36.0,30.17,WSW,238,0.0,-999.0,84,-99.99,,,0.00,weatherlink.com 1.10,2013-01-09 19:41:00,
2013-01-09 14:56:00,40.6,37.0,30.11,East,94,1.0,-999.0,85,-99.99,,,0.00,weatherlink.com 1.10,2013-01-09 19:56:00,
2013-01-09 15:11:00,40.6,37.0,30.14,East,86,0.0,-999.0,85,-99.99,,,0.00,weatherlink.com 1.10,2013-01-09 20:11:00,
2013-01-09 15:26:00,40.7,37.0,30.14,East,88,0.0,-999.0,85,-99.99,,,0.00,weatherlink.com 1.10,2013-01-09 20:26:00,
2013-01-09 15:41:00,40.5,37.0,30.12,SW,215,0.0,-999.0,86,-99.99,,,0.00,weatherlink.com 1.10,2013-01-09 20:41:00,
2013-01-09 15:56:00,40.4,37.0,30.12,West,263,1.0,-999.0,87,-99.99,,,0.00,weatherlink.com 1.10,2013-01-09 20:56:00,
2013-01-09 16:11:00,40.5,37.0,30.12,West,263,0.0,-999.0,87,-99.99,,,0.00,weatherlink.com 1.10,2013-01-09 21:11:00,
2013-01-09 16:26:00,40.5,37.0,30.11,West,263,0.0,-999.0,87,-99.99,,,0.00,weatherlink.com 1.10,2013-01-09 21:26:00,
2013-01-09 16:41:00,40.8,37.0,30.12,West,263,0.0,-999.0,86,-99.99,,,0.00,weatherlink.com 1.10,2013-01-09 21:41:00,
2013-01-09 16:56:00,40.6,37.0,30.12,West,265,0.0,-999.0,86,-99.99,,,0.00,weatherlink.com 1.10,2013-01-09 21:56:00,
2013-01-09 17:11:00,40.6,37.0,30.13,NW,315,0.0,-999.0,86,-99.99,,,0.00,weatherlink.com 1.10,2013-01-09 22:11:00,
2013-01-09 17:26:00,41.3,37.0,30.14,SW,229,2.0,-999.0,85,-99.99,,,0.00,weatherlink.com 1.10,2013-01-09 22:26:00,
2013-01-09 17:41:00,41.6,37.0,30.13,West,259,3.0,-999.0,85,-99.99,,,0.00,weatherlink.com 1.10,2013-01-09 22:41:00,
2013-01-09 18:11:00,41.4,37.0,30.11,West,271,2.0,-999.0,85,-99.99,,,0.00,weatherlink.com 1.10,2013-01-09 23:11:00,
2013-01-09 18:26:00,42.0,38.0,30.12,West,268,1.0,-999.0,85,-99.99,,,0.00,weatherlink.com 1.10,2013-01-09 23:26:00,
2013-01-09 18:41:00,41.9,38.0,30.13,WNW,303,3.0,-999.0,85,-99.99,,,0.00,weatherlink.com 1.10,2013-01-09 23:41:00,
2013-01-09 18:56:00,42.1,38.0,30.13,WNW,298,2.0,-999.0,85,-99.99,,,0.00,weatherlink.com 1.10,2013-01-09 23:56:00,
2013-01-09 19:08:00,42.3,38.1,30.14,WNW,291,3.0,3.0,85,0.00,,,0.00,Wunderground v.1.15,2013-01-10 00:08:00,
2013-01-09 19:13:00,42.3,38.1,30.14,West,279,3.0,3.0,85,0.00,,,0.00,Wunderground v.1.15,2013-01-10 00:13:00,
2013-01-09 19:23:00,42.3,38.1,30.14,West,275,2.0,2.0,85,0.00,,,0.00,Wunderground v.1.15,2013-01-10 00:23:00,
2013-01-09 19:28:00,42.5,38.3,30.14,NW,306,2.0,2.0,85,0.00,,,0.00,Wunderground v.1.15,2013-01-10 00:28:00,
2013-01-09 19:33:00,42.4,38.2,30.14,West,275,2.0,3.0,85,0.00,,,0.00,Wunderground v.1.15,2013-01-10 00:33:00,
2013-01-09 19:38:00,42.4,38.2,30.14,WNW,299,2.0,3.0,85,0.00,,,0.00,Wunderground v.1.15,2013-01-10 00:38:00,
2013-01-09 19:48:00,42.2,38.0,30.14,WNW,296,1.0,2.0,85,0.00,,,0.00,Wunderground v.1.15,2013-01-10 00:48:00,
2013-01-09 19:53:00,42.3,38.1,30.15,NW,309,2.0,3.0,85,0.00,,,0.00,Wunderground v.1.15,2013-01-10 00:53:00,
2013-01-09 19:58:00,42.2,38.0,30.14,West,273,2.0,3.0,85,0.00,,,0.00,Wunderground v.1.15,2013-01-10 00:58:00,
2013-01-09 20:03:00,42.0,37.8,30.14,West,280,1.0,2.0,85,0.00,,,0.00,Wunderground v.1.15,2013-01-10 01:03:00,
2013-01-09 20:12:00,42.0,38.0,30.14,NW,312,2.0,-999.0,85,-99.99,,,0.00,weatherlink.com 1.10,2013-01-10 01:12:00,
2013-01-09 20:18:00,42.0,37.8,30.14,West,274,1.0,3.0,85,0.00,,,0.00,Wunderground v.1.15,2013-01-10 01:18:00,
2013-01-09 20:23:00,42.1,37.9,30.14,NNW,344,1.0,2.0,85,0.00,,,0.00,Wunderground v.1.15,2013-01-10 01:23:00,
2013-01-09 20:33:00,41.9,37.4,30.14,WNW,293,1.0,1.0,84,0.00,,,0.00,Wunderground v.1.15,2013-01-10 01:33:00,
2013-01-09 20:38:00,41.9,37.4,30.14,WNW,288,1.0,3.0,84,0.00,,,0.00,Wunderground v.1.15,2013-01-10 01:38:00,
2013-01-09 20:43:00,42.1,37.6,30.14,NW,305,1.0,1.0,84,0.00,,,0.00,Wunderground v.1.15,2013-01-10 01:43:00,
2013-01-09 20:53:00,42.4,37.6,30.14,WNW,287,1.0,2.0,83,0.00,,,0.00,Wunderground v.1.15,2013-01-10 01:53:00,
2013-01-09 20:58:00,42.6,37.5,30.14,West,279,1.0,3.0,82,0.00,,,0.00,Wunderground v.1.15,2013-01-10 01:58:00,
2013-01-09 21:03:00,42.7,37.3,30.14,WSW,249,1.0,2.0,81,0.00,,,0.00,Wunderground v.1.15,2013-01-10 02:03:00,
2013-01-09 21:08:00,42.7,37.3,30.14,West,261,1.0,2.0,81,0.00,,,0.00,Wunderground v.1.15,2013-01-10 02:08:00,
2013-01-09 21:13:00,42.8,37.4,30.14,West,265,1.0,1.0,81,0.00,,,0.00,Wunderground v.1.15,2013-01-10 02:13:00,
2013-01-09 21:23:00,42.9,37.2,30.14,West,280,1.0,3.0,80,0.00,,,0.00,Wunderground v.1.15,2013-01-10 02:23:00,
2013-01-09 21:28:00,43.1,37.3,30.15,SSW,196,1.0,4.0,80,0.00,,,0.00,Wunderground v.1.15,2013-01-10 02:28:00,
2013-01-09 21:33:00,43.1,37.3,30.15,West,263,1.0,1.0,80,0.00,,,0.00,Wunderground v.1.15,2013-01-10 02:33:00,
2013-01-09 21:43:00,43.1,37.3,30.15,WNW,287,1.0,1.0,80,0.00,,,0.00,Wunderground v.1.15,2013-01-10 02:43:00,
2013-01-09 21:48:00,43.1,37.0,30.15,NW,313,1.0,1.0,79,0.00,,,0.00,Wunderground v.1.15,2013-01-10 02:48:00,
2013-01-09 21:53:00,42.9,36.8,30.15,NW,314,0.0,3.0,79,0.00,,,0.00,Wunderground v.1.15,2013-01-10 02:53:00,
2013-01-09 21:58:00,42.8,36.7,30.15,NW,319,1.0,3.0,79,0.00,,,0.00,Wunderground v.1.15,2013-01-10 02:58:00,
2013-01-09 22:03:00,42.7,37.0,30.15,WNW,298,1.0,1.0,80,0.00,,,0.00,Wunderground v.1.15,2013-01-10 03:03:00,
2013-01-09 22:08:00,42.6,36.9,30.15,West,263,1.0,1.0,80,0.00,,,0.00,Wunderground v.1.15,2013-01-10 03:08:00,
2013-01-09 22:14:00,42.2,36.0,30.15,West,267,0.0,-999.0,80,-99.99,,,0.00,weatherlink.com 1.10,2013-01-10 03:14:00,
2013-01-09 22:23:00,42.2,36.5,30.15,WNW,283,1.0,1.0,80,0.00,,,0.00,Wunderground v.1.15,2013-01-10 03:23:00,
2013-01-09 22:28:00,42.1,36.4,30.16,WNW,283,0.0,1.0,80,0.00,,,0.00,Wunderground v.1.15,2013-01-10 03:28:00,
2013-01-09 22:33:00,42.0,36.3,30.16,NW,304,0.0,1.0,80,0.00,,,0.00,Wunderground v.1.15,2013-01-10 03:33:00,
2013-01-09 22:43:00,42.0,36.3,30.16,WNW,296,1.0,1.0,80,0.00,,,0.00,Wunderground v.1.15,2013-01-10 03:43:00,
2013-01-09 22:48:00,41.9,35.9,30.16,ENE,57,1.0,1.0,79,0.00,,,0.00,Wunderground v.1.15,2013-01-10 03:48:00,
2013-01-09 22:53:00,41.9,35.9,30.16,NW,304,1.0,1.0,79,0.00,,,0.00,Wunderground v.1.15,2013-01-10 03:53:00,
2013-01-09 22:58:00,41.9,35.9,30.16,WNW,298,1.0,3.0,79,0.00,,,0.00,Wunderground v.1.15,2013-01-10 03:58:00,
2013-01-09 23:03:00,42.1,35.7,30.16,WNW,292,1.0,1.0,78,0.00,,,0.00,Wunderground v.1.15,2013-01-10 04:03:00,
2013-01-09 23:13:00,42.5,35.5,30.16,NNW,332,2.0,2.0,76,0.00,,,0.00,Wunderground v.1.15,2013-01-10 04:13:00,
2013-01-09 23:18:00,42.5,35.5,30.17,West,280,1.0,2.0,76,0.00,,,0.00,Wunderground v.1.15,2013-01-10 04:18:00,
2013-01-09 23:23:00,42.6,35.2,30.17,NNW,344,2.0,4.0,75,0.00,,,0.00,Wunderground v.1.15,2013-01-10 04:23:00,
2013-01-09 23:28:00,42.6,35.2,30.17,NW,313,2.0,4.0,75,0.00,,,0.00,Wunderground v.1.15,2013-01-10 04:28:00,
2013-01-09 23:33:00,42.8,35.1,30.17,North,355,2.0,3.0,74,0.00,,,0.00,Wunderground v.1.15,2013-01-10 04:33:00,
2013-01-09 23:43:00,42.7,35.3,30.17,NNW,335,2.0,5.0,75,0.00,,,0.00,Wunderground v.1.15,2013-01-10 04:43:00,
2013-01-09 23:48:00,42.6,34.9,30.17,NW,321,2.0,5.0,74,0.00,,,0.00,Wunderground v.1.15,2013-01-10 04:48:00,
2013-01-09 23:53:00,42.4,34.7,30.17,WNW,302,1.0,2.0,74,0.00,,,0.00,Wunderground v.1.15,2013-01-10 04:53:00,